MLBA4: Mulberry River at Mulberry, AR

                                SHEF ID:       MLBA4     Mulberry River near Mulberry. AR
STATION TYPE: Stream Gauge

PRECIP STAGE RIV-FLOW BAT-LOAD
in ft cfs volt
Ccp-Rev Ccp-Rev Ccp-Rev Ccp-Rev
(America/Chicago)
06/29 00:00 0.00 3.07 1182 13.39
06/29 01:00 0.00 3.06 1176 13.39
06/29 02:00 0.00 3.03 1158 13.39
06/29 03:00 0.00 3.00 1140 13.40
06/29 04:00 0.00 2.97 1123 13.41
06/29 05:00 0.00 2.95 1111 13.42
06/29 06:00 0.00 2.89 1077 13.42
06/29 07:00 0.00 2.86 1060 13.42
06/29 08:00 0.00 2.84 1049 13.41
06/29 09:00 0.00 2.89 1077 13.42
06/29 10:00 0.00 2.85 1055 13.42
06/29 11:00 0.00 2.85 1055 13.41
06/29 12:00 0.00 2.83 1043 13.41
06/29 13:00 0.00 2.81 1032 13.40
06/29 14:00 0.00 2.80 1027 13.39
06/29 15:00 0.00 2.74 990 13.39
06/29 16:00 0.00 2.79 1021 13.38
06/29 17:00 0.00 2.77 1009 13.37
06/29 18:00 0.00 2.69 959 13.36
06/29 19:00 0.00 2.69 959 13.35
06/29 20:00 0.00 2.67 947 13.35
06/29 21:00 0.00 2.72 978 13.35
06/29 22:00 0.00 2.71 971 13.36
06/29 23:00 0.00 2.65 935 13.36
Data processed at Tue 30Jun2026 04:40 GMT

NOTICE: If you are parsing this page

Please convert to using our Data API. Starting early 2026 we will be migrating to: https://water.usace.army.mil with modern pages rendered in JavaScript. When this migration completes you will no longer be able to scrape this page! CWMSDataAPI (CDA)

Timeseries IDs (TSIDs)

TSIDs used from left to right in the data table
MULB.Precip-Inc.Total.1Hour.1Hour.Ccp-Rev
MULB.Stage.Inst.1Hour.0.Ccp-Rev
MULB.Flow.Inst.1Hour.0.Ccp-Rev
MULB.Volt-Battery Load.Inst.1Hour.0.Ccp-Rev

                            

All information presented herein is the property of the government of the United States of America and may be revised or deleted at any time without prior notice. Dissemination of this information without the expressed written consent of the Public Affairs Office, Tulsa District U.S. Army Corps of Engineers is strictly prohibited. These data are gathered electronically and, as presented, have NOT undergone any form of quality control. These data are NOT guaranteed to be valid or correct.